Time;durP1;ratioP1;P1;durP2;ratioP2;P2;SDS_P1;SDS_P2;PMS_P1;PMS_P2;Temp;Humidity;BMP_temperature;BMP_pressure;BME280_temperature;BME280_humidity;BME280_pressure;Samples;Min_cycle;Max_cycle;Signal;HPM_P1;HPM_P2
2023/10/19 00:01:58;;;;;;;9.15;3.60;;;20.90;75.00;;;;;;6278352;22;20000;-85
2023/10/19 00:04:32;;;;;;;6.90;3.20;;;20.90;75.20;;;;;;6278918;22;20016;-85
2023/10/19 00:06:58;;;;;;;8.48;2.90;;;20.90;75.10;;;;;;6250213;22;20034;-85
2023/10/19 00:09:25;;;;;;;10.98;3.15;;;20.90;74.40;;;;;;6271424;22;20016;-86
2023/10/19 00:11:51;;;;;;;6.72;3.10;;;21.00;74.30;;;;;;6248353;23;20016;-86
2023/10/19 00:14:18;;;;;;;14.00;3.47;;;21.00;74.10;;;;;;6253432;23;20447;-83
2023/10/19 00:16:56;;;;;;;7.35;2.58;;;21.00;73.80;;;;;;6249413;23;20015;-84
2023/10/19 00:19:27;;;;;;;5.57;2.67;;;21.00;73.80;;;;;;6248177;23;19996;-84
2023/10/19 00:22:01;;;;;;;6.65;2.60;;;21.00;73.90;;;;;;6251660;23;20060;-83
2023/10/19 00:24:28;;;;;;;7.90;2.88;;;21.00;73.70;;;;;;6250904;23;20101;-84
2023/10/19 00:26:57;;;;;;;7.55;2.60;;;21.10;73.60;;;;;;6248371;23;20051;-85
2023/10/19 00:29:32;;;;;;;5.13;2.10;;;21.10;73.20;;;;;;6248737;23;20422;-85
2023/10/19 00:32:02;;;;;;;6.32;2.40;;;21.10;73.30;;;;;;6248852;23;20180;-84
2023/10/19 00:34:28;;;;;;;6.72;2.33;;;21.10;72.70;;;;;;6249086;23;20003;-84
2023/10/19 00:37:01;;;;;;;5.97;2.28;;;21.10;72.70;;;;;;6249518;23;20012;-87
2023/10/19 00:39:27;;;;;;;5.70;2.40;;;21.20;72.60;;;;;;6226479;23;20283;-83
2023/10/19 00:41:58;;;;;;;8.48;2.47;;;21.20;72.60;;;;;;6258458;23;20223;-83
2023/10/19 00:44:49;;;;;;;6.72;2.58;;;21.20;72.70;;;;;;6262815;23;20042;-83
2023/10/19 00:47:13;;;;;;;7.63;2.72;;;21.20;72.70;;;;;;6268875;23;20016;-84
2023/10/19 00:49:39;;;;;;;7.45;2.70;;;21.20;73.00;;;;;;6270292;23;20002;-84
2023/10/19 00:52:19;;;;;;;8.18;2.20;;;21.30;72.60;;;;;;6262122;23;20359;-83
2023/10/19 00:54:58;;;;;;;9.90;3.13;;;21.30;72.60;;;;;;6249195;23;20326;-83
2023/10/19 00:57:34;;;;;;;7.07;3.05;;;21.30;72.50;;;;;;6248981;23;20099;-85
2023/10/19 01:00:43;;;;;;;6.93;3.60;;;21.30;73.50;;;;;;6248694;23;20346;-83
2023/10/19 01:02:52;;;;;;;7.55;3.10;;;21.20;73.70;;;;;;6227830;23;20011;-84
2023/10/19 01:05:21;;;;;;;9.55;3.60;;;21.20;73.90;;;;;;6247764;23;20008;-84
2023/10/19 01:07:55;;;;;;;8.95;3.10;;;21.20;73.90;;;;;;6247155;23;20044;-82
2023/10/19 01:10:22;;;;;;;7.70;3.15;;;21.20;74.20;;;;;;6247504;23;20020;-82
2023/10/19 01:12:47;;;;;;;11.15;3.40;;;21.20;74.30;;;;;;6246796;23;20083;-84
2023/10/19 01:15:18;;;;;;;8.90;3.50;;;21.20;74.50;;;;;;6247410;23;20034;-79
2023/10/19 01:17:46;;;;;;;10.13;3.20;;;21.10;74.70;;;;;;6250440;23;20011;-82
2023/10/19 01:25:43;;;;;;;5.82;3.28;;;21.00;76.00;;;;;;6248636;23;20509;-83
2023/10/19 01:28:10;;;;;;;6.53;3.10;;;21.00;75.60;;;;;;6246799;23;20430;-84
2023/10/19 01:30:37;;;;;;;9.80;3.42;;;20.90;75.70;;;;;;6246466;23;20004;-83
2023/10/19 01:33:04;;;;;;;7.30;3.25;;;20.90;76.10;;;;;;6246293;23;20445;-85
2023/10/19 01:36:11;;;;;;;8.13;3.50;;;20.80;76.30;;;;;;6246780;23;20000;-85
2023/10/19 01:38:16;;;;;;;8.60;3.67;;;20.70;76.50;;;;;;6246500;23;20499;-86
2023/10/19 01:40:48;;;;;;;14.18;4.13;;;20.80;77.00;;;;;;6246722;23;20058;-84
2023/10/19 01:43:21;;;;;;;8.13;3.30;;;20.70;77.60;;;;;;6246691;23;20015;-85
2023/10/19 01:45:54;;;;;;;7.70;3.35;;;20.70;77.10;;;;;;6220290;23;20020;-84
2023/10/19 01:48:22;;;;;;;8.63;3.58;;;20.60;77.40;;;;;;6248819;23;20070;-82
2023/10/19 01:50:50;;;;;;;9.05;3.53;;;20.70;77.60;;;;;;6259732;23;20008;-81
2023/10/19 01:53:17;;;;;;;7.35;3.38;;;20.70;77.70;;;;;;6260968;23;20008;-83
2023/10/19 01:55:47;;;;;;;9.77;3.90;;;20.70;77.70;;;;;;6264607;23;20007;-83
2023/10/19 01:58:14;;;;;;;8.50;3.70;;;20.70;77.60;;;;;;6253699;23;20003;-83
2023/10/19 02:00:42;;;;;;;7.72;3.40;;;20.70;77.80;;;;;;6246714;23;20063;-84
2023/10/19 02:03:08;;;;;;;7.78;3.33;;;20.70;77.90;;;;;;6246169;23;20000;-84
2023/10/19 02:05:42;;;;;;;10.23;3.35;;;20.70;78.20;;;;;;6247641;23;20008;-83
2023/10/19 02:08:08;;;;;;;9.43;3.50;;;20.60;78.30;;;;;;6247032;23;20326;-83
2023/10/19 02:10:40;;;;;;;12.38;3.60;;;20.60;78.20;;;;;;6246375;23;20111;-84
2023/10/19 02:13:08;;;;;;;9.43;3.55;;;20.60;78.20;;;;;;6246819;23;19996;-85
2023/10/19 02:15:36;;;;;;;7.78;3.63;;;20.60;78.40;;;;;;6246128;23;20075;-85
2023/10/19 02:18:05;;;;;;;12.57;3.65;;;20.70;78.00;;;;;;6219571;23;20054;-84
2023/10/19 02:20:31;;;;;;;12.00;3.63;;;20.70;77.70;;;;;;6247145;23;20000;-82
2023/10/19 02:22:57;;;;;;;7.35;3.45;;;20.70;77.60;;;;;;6249918;23;20422;-83
2023/10/19 02:25:30;;;;;;;8.20;2.88;;;20.70;77.50;;;;;;6246429;23;20023;-83
2023/10/19 02:27:56;;;;;;;15.13;3.80;;;20.70;77.80;;;;;;6246736;23;20369;-83
2023/10/19 02:30:24;;;;;;;10.00;3.55;;;20.70;77.50;;;;;;6246455;23;20004;-84
2023/10/19 02:32:50;;;;;;;9.35;3.33;;;20.70;77.40;;;;;;6246340;23;20003;-83
2023/10/19 02:35:16;;;;;;;7.70;3.22;;;20.70;77.10;;;;;;6246425;23;20004;-81
2023/10/19 02:37:42;;;;;;;8.43;3.40;;;20.70;77.00;;;;;;6245835;23;20406;-83
2023/10/19 02:40:23;;;;;;;4.97;2.60;;;20.80;76.70;;;;;;6245563;23;20472;-82
2023/10/19 02:42:50;;;;;;;9.50;3.22;;;20.80;76.50;;;;;;6245829;23;19996;-82
2023/10/19 02:45:17;;;;;;;8.55;3.60;;;20.80;76.40;;;;;;6246765;23;20016;-83
2023/10/19 02:47:46;;;;;;;6.00;3.10;;;20.80;76.40;;;;;;6246562;23;20358;-84
2023/10/19 02:50:22;;;;;;;6.72;2.90;;;20.80;76.30;;;;;;6246257;23;20008;-83
2023/10/19 02:52:48;;;;;;;10.98;3.30;;;20.80;76.40;;;;;;6246766;23;20154;-85
2023/10/19 02:55:16;;;;;;;7.00;2.75;;;20.80;76.10;;;;;;6246355;23;20000;-83
2023/10/19 02:57:46;;;;;;;8.13;3.30;;;20.80;75.90;;;;;;6246029;23;20079;-83
2023/10/19 03:00:19;;;;;;;9.43;3.40;;;20.80;76.00;;;;;;6246047;23;20004;-84
2023/10/19 03:02:46;;;;;;;8.45;3.40;;;20.80;76.10;;;;;;6219719;23;20282;-84
2023/10/19 03:05:14;;;;;;;7.88;2.92;;;20.80;76.10;;;;;;6246137;23;20027;-82
2023/10/19 03:07:44;;;;;;;8.30;3.25;;;20.80;76.70;;;;;;6246192;23;20005;-83
2023/10/19 03:10:23;;;;;;;9.32;2.80;;;20.80;76.10;;;;;;6245865;23;20020;-83
2023/10/19 03:12:52;;;;;;;8.90;3.05;;;20.80;76.10;;;;;;6245547;23;20004;-83
2023/10/19 03:15:21;;;;;;;9.35;3.40;;;20.70;76.10;;;;;;6246162;23;20085;-84
2023/10/19 03:17:48;;;;;;;6.75;3.13;;;20.70;76.30;;;;;;6246001;23;20585;-83
2023/10/19 03:20:16;;;;;;;10.18;3.38;;;20.70;75.90;;;;;;6246285;23;20065;-84
2023/10/19 03:22:43;;;;;;;7.32;3.05;;;20.80;76.20;;;;;;6248310;23;20255;-81
2023/10/19 03:26:17;;;;;;;9.57;3.53;;;20.90;76.50;;;;;;6250827;23;20023;-81
2023/10/19 03:28:11;;;;;;;9.40;3.97;;;20.90;77.00;;;;;;6246014;23;20042;-82
2023/10/19 03:30:40;;;;;;;8.18;3.45;;;21.00;77.00;;;;;;6247127;23;20023;-83
2023/10/19 03:33:10;;;;;;;10.68;3.65;;;21.10;77.20;;;;;;6255230;23;20007;-83
2023/10/19 03:35:38;;;;;;;11.70;3.95;;;21.20;77.70;;;;;;6265317;23;20068;-84
2023/10/19 03:38:25;;;;;;;11.02;3.83;;;21.30;78.20;;;;;;6266934;23;20004;-82
2023/10/19 03:40:59;;;;;;;13.48;3.97;;;21.40;78.40;;;;;;6249321;23;20035;-82
2023/10/19 03:43:27;;;;;;;14.85;4.68;;;21.40;79.00;;;;;;6247319;23;20011;-82
2023/10/19 03:45:53;;;;;;;15.60;3.63;;;21.50;78.80;;;;;;6251361;23;20015;-82
2023/10/19 03:48:26;;;;;;;12.23;4.40;;;21.50;78.90;;;;;;6248536;23;20008;-83
2023/10/19 03:50:58;;;;;;;12.27;4.20;;;21.60;79.20;;;;;;6247771;23;20004;-83
2023/10/19 03:53:24;;;;;;;10.63;3.42;;;21.60;78.80;;;;;;6248431;23;20046;-83
2023/10/19 03:55:50;;;;;;;10.20;3.83;;;21.70;79.00;;;;;;6248013;23;20004;-83
2023/10/19 03:58:16;;;;;;;8.65;3.67;;;21.70;78.70;;;;;;6248430;23;20058;-84
2023/10/19 04:00:44;;;;;;;7.70;3.80;;;21.80;78.80;;;;;;6248149;23;20163;-83
2023/10/19 04:03:10;;;;;;;10.73;4.03;;;21.80;78.70;;;;;;6248063;23;20012;-83
2023/10/19 04:05:38;;;;;;;11.77;4.10;;;21.80;78.80;;;;;;6247417;23;20022;-82
2023/10/19 04:08:14;;;;;;;11.15;4.25;;;21.90;78.80;;;;;;6247363;23;20342;-83
2023/10/19 04:10:44;;;;;;;9.35;3.70;;;21.90;78.90;;;;;;6247706;23;20019;-82
2023/10/19 04:13:10;;;;;;;7.47;3.80;;;21.80;78.80;;;;;;6247790;23;20008;-83
2023/10/19 04:15:37;;;;;;;12.20;3.92;;;21.90;79.00;;;;;;6248116;23;20097;-83
2023/10/19 04:18:08;;;;;;;10.88;3.90;;;21.90;79.00;;;;;;6247808;23;20019;-82
2023/10/19 04:23:20;;;;;;;;;;;21.90;79.60;;;;;;6264612;23;20004;-82
2023/10/19 04:25:46;;;;;;;11.88;3.95;;;21.90;79.40;;;;;;6261182;23;19907;-81
2023/10/19 04:28:15;;;;;;;12.10;4.28;;;21.90;79.00;;;;;;6255528;23;20387;-81
2023/10/19 04:30:41;;;;;;;10.45;4.25;;;21.90;79.20;;;;;;6247724;23;20440;-82
2023/10/19 04:33:10;;;;;;;16.60;4.18;;;21.90;79.30;;;;;;6221433;23;20007;-81
2023/10/19 04:35:37;;;;;;;10.10;3.80;;;21.90;79.60;;;;;;6248106;23;20419;-82
2023/10/19 04:38:08;;;;;;;12.95;4.50;;;22.00;78.90;;;;;;6248748;23;20047;-85
2023/10/19 04:40:33;;;;;;;15.60;3.80;;;22.00;79.00;;;;;;6248407;23;20004;-81
2023/10/19 04:43:08;;;;;;;14.18;4.03;;;22.00;79.10;;;;;;6248017;23;20000;-83
2023/10/19 04:45:33;;;;;;;9.82;4.30;;;22.00;79.00;;;;;;6249279;23;20453;-82
2023/10/19 04:47:59;;;;;;;11.18;4.65;;;22.00;79.20;;;;;;6250333;23;20004;-84
2023/10/19 04:50:25;;;;;;;15.98;4.78;;;22.00;79.20;;;;;;6220979;23;20067;-82
2023/10/19 04:52:51;;;;;;;13.45;4.53;;;22.10;79.60;;;;;;6247550;23;20080;-82
2023/10/19 04:55:16;;;;;;;17.27;5.00;;;22.10;79.80;;;;;;6247585;23;20075;-83
2023/10/19 04:57:42;;;;;;;11.68;4.90;;;22.10;80.20;;;;;;6247893;23;20007;-82
2023/10/19 05:00:13;;;;;;;15.02;4.70;;;22.10;80.20;;;;;;6247675;23;20118;-82
2023/10/19 05:02:39;;;;;;;12.73;4.75;;;22.10;80.50;;;;;;6248446;23;20393;-84
2023/10/19 05:05:05;;;;;;;13.85;5.28;;;22.00;80.30;;;;;;6247679;23;20346;-84
2023/10/19 05:07:30;;;;;;;18.60;5.20;;;22.10;80.90;;;;;;6248130;23;20103;-81
2023/10/19 05:09:59;;;;;;;12.55;4.80;;;22.10;80.90;;;;;;6246685;23;20016;-84
2023/10/19 05:12:25;;;;;;;17.77;5.15;;;22.10;80.80;;;;;;6247188;23;20004;-82
2023/10/19 05:14:50;;;;;;;15.10;5.43;;;22.20;81.10;;;;;;6247247;23;20008;-83
2023/10/19 05:17:16;;;;;;;12.00;5.15;;;22.10;81.10;;;;;;6246653;23;20000;-82
2023/10/19 05:19:42;;;;;;;14.80;5.18;;;22.10;81.30;;;;;;6247176;23;20016;-83
2023/10/19 05:22:09;;;;;;;20.20;5.53;;;22.10;81.40;;;;;;6247133;23;20016;-79
2023/10/19 05:24:35;;;;;;;13.93;5.45;;;22.10;82.20;;;;;;6245154;23;20325;-79
2023/10/19 05:27:01;;;;;;;14.85;5.15;;;22.10;81.60;;;;;;6245909;23;20134;-80
2023/10/19 05:29:27;;;;;;;15.20;5.70;;;22.10;81.90;;;;;;6256952;23;20007;-84
2023/10/19 05:31:54;;;;;;;14.88;5.57;;;22.20;82.00;;;;;;6251545;23;20004;-84
2023/10/19 05:34:23;;;;;;;19.58;6.10;;;22.20;81.90;;;;;;6251326;23;20004;-82
2023/10/19 05:36:49;;;;;;;14.57;5.47;;;22.20;81.70;;;;;;6247928;23;20398;-83
2023/10/19 05:39:16;;;;;;;18.83;5.45;;;22.20;81.90;;;;;;6246065;23;20000;-84
2023/10/19 05:41:42;;;;;;;18.45;5.57;;;22.30;81.80;;;;;;6246279;23;20005;-83
2023/10/19 05:44:08;;;;;;;19.85;5.30;;;22.30;81.80;;;;;;6246333;23;20004;-83
2023/10/19 05:46:33;;;;;;;21.48;5.80;;;22.30;81.90;;;;;;6248467;23;20050;-82
2023/10/19 05:49:01;;;;;;;21.58;6.32;;;22.40;81.90;;;;;;6246187;23;20035;-80
2023/10/19 05:51:27;;;;;;;23.90;6.60;;;22.40;81.80;;;;;;6245885;23;20011;-82
2023/10/19 05:53:54;;;;;;;23.27;5.60;;;22.40;81.60;;;;;;6246277;23;19996;-81
2023/10/19 05:56:21;;;;;;;24.02;7.30;;;22.40;81.90;;;;;;6219308;23;20326;-85
2023/10/19 05:58:50;;;;;;;22.38;6.60;;;22.40;81.70;;;;;;6245701;23;20022;-82
2023/10/19 06:01:17;;;;;;;43.00;10.60;;;22.50;81.70;;;;;;6245198;23;20012;-79
2023/10/19 06:03:43;;;;;;;22.48;7.13;;;22.50;81.40;;;;;;6246973;23;20012;-76
2023/10/19 06:06:08;;;;;;;26.25;7.97;;;22.60;81.60;;;;;;6245550;23;20450;-73
2023/10/19 20:59:50;;;;;;;28.70;8.52;;;23.90;92.10;;;;;;6271685;22;20026;-79
2023/10/19 21:02:17;;;;;;;24.88;8.25;;;23.90;92.10;;;;;;6275814;22;20035;-77
2023/10/19 21:04:42;;;;;;;30.48;8.35;;;23.90;92.10;;;;;;6274200;22;20003;-78
2023/10/19 21:07:08;;;;;;;23.50;7.60;;;23.90;92.20;;;;;;6276792;22;20061;-79
2023/10/19 21:09:34;;;;;;;26.98;8.00;;;23.90;92.20;;;;;;6277160;22;20004;-79
2023/10/19 21:12:00;;;;;;;27.00;8.13;;;23.90;92.20;;;;;;6276794;22;20425;-78
2023/10/19 21:14:25;;;;;;;28.50;8.80;;;23.80;92.10;;;;;;6276433;22;20011;-79
2023/10/19 21:16:51;;;;;;;21.33;7.43;;;23.80;92.20;;;;;;6276685;22;20074;-78
2023/10/19 21:19:17;;;;;;;30.65;8.30;;;23.80;92.20;;;;;;6275872;22;20049;-78
2023/10/19 21:21:43;;;;;;;30.08;8.65;;;23.80;92.20;;;;;;6276142;22;20010;-78
2023/10/19 21:24:09;;;;;;;28.90;7.72;;;23.80;92.30;;;;;;6276439;22;20330;-77
2023/10/19 21:26:34;;;;;;;29.95;8.68;;;23.80;92.30;;;;;;6275892;22;20110;-78
2023/10/19 21:29:00;;;;;;;23.38;7.35;;;23.80;92.30;;;;;;6276213;22;19999;-78
2023/10/19 21:31:27;;;;;;;29.63;7.82;;;23.80;92.30;;;;;;6276007;22;20074;-78
2023/10/19 21:33:52;;;;;;;25.30;7.63;;;23.80;92.40;;;;;;6275247;22;20000;-78
2023/10/19 21:36:19;;;;;;;27.23;7.60;;;23.80;92.40;;;;;;6274180;22;20062;-78
2023/10/19 21:38:45;;;;;;;32.63;8.05;;;23.80;92.40;;;;;;6274415;22;20053;-79
2023/10/19 21:41:15;;;;;;;28.83;7.85;;;23.80;92.40;;;;;;6274435;22;20078;-79
2023/10/19 21:43:41;;;;;;;26.85;7.70;;;23.70;92.40;;;;;;6274498;22;20000;-79
2023/10/19 21:46:06;;;;;;;24.77;7.50;;;23.80;92.40;;;;;;6275949;22;20011;-78
2023/10/19 21:48:32;;;;;;;23.30;7.55;;;23.70;92.30;;;;;;6276316;22;20091;-79
2023/10/19 21:50:59;;;;;;;36.47;8.85;;;23.70;92.30;;;;;;6276091;22;20419;-78
2023/10/19 21:53:25;;;;;;;28.00;7.68;;;23.80;92.30;;;;;;6276028;22;20011;-77
2023/10/19 21:55:54;;;;;;;26.77;7.55;;;23.70;92.30;;;;;;6275789;22;20018;-77
2023/10/19 21:58:21;;;;;;;25.30;8.02;;;23.70;92.30;;;;;;6276123;22;20287;-79
2023/10/19 22:00:56;;;;;;;26.50;7.63;;;23.70;92.20;;;;;;6275628;22;20015;-77
2023/10/19 22:03:28;;;;;;;29.40;8.27;;;23.70;92.20;;;;;;6276190;22;20444;-77
2023/10/19 22:05:54;;;;;;;25.00;7.22;;;23.60;92.20;;;;;;6276354;22;20020;-78
2023/10/19 22:08:20;;;;;;;21.90;7.38;;;23.60;92.20;;;;;;6276112;22;20453;-78
2023/10/19 22:10:46;;;;;;;28.35;8.18;;;23.60;92.10;;;;;;6275887;22;20342;-78
2023/10/19 22:13:15;;;;;;;23.35;7.57;;;23.60;92.00;;;;;;6276061;22;19996;-77
2023/10/19 22:15:42;;;;;;;24.20;7.32;;;23.60;92.00;;;;;;6276192;22;20077;-78
2023/10/19 22:18:08;;;;;;;28.70;7.28;;;23.60;92.00;;;;;;6276372;22;20010;-78
2023/10/19 22:20:35;;;;;;;20.35;6.90;;;23.60;92.00;;;;;;6275865;22;20093;-78
2023/10/19 22:23:01;;;;;;;24.65;7.78;;;23.60;91.80;;;;;;6275792;22;20018;-77
2023/10/19 22:25:28;;;;;;;26.60;6.90;;;23.60;91.80;;;;;;6275945;22;20422;-77
2023/10/19 22:27:54;;;;;;;23.13;6.50;;;23.50;91.70;;;;;;6275650;22;20038;-77
2023/10/19 22:30:21;;;;;;;21.52;6.60;;;23.60;91.80;;;;;;6275804;22;19999;-78
2023/10/19 22:32:48;;;;;;;19.15;7.38;;;23.50;91.70;;;;;;6275574;22;20008;-78
2023/10/19 22:35:14;;;;;;;28.98;6.93;;;23.60;91.60;;;;;;6275889;22;20392;-77
2023/10/19 22:37:40;;;;;;;18.52;6.80;;;23.60;91.60;;;;;;6275760;22;20031;-77
2023/10/19 22:40:06;;;;;;;30.25;7.10;;;23.60;91.50;;;;;;6275929;22;20024;-77
2023/10/19 22:42:32;;;;;;;26.85;7.10;;;23.60;91.50;;;;;;6275668;22;20067;-78
2023/10/19 22:44:58;;;;;;;26.38;6.65;;;23.60;91.40;;;;;;6275648;22;20000;-79
2023/10/19 22:47:24;;;;;;;24.38;7.28;;;23.60;91.30;;;;;;6275759;22;20448;-78
2023/10/19 22:49:49;;;;;;;25.77;7.50;;;23.60;91.30;;;;;;6276109;22;20049;-79
2023/10/19 22:52:15;;;;;;;25.70;7.70;;;23.60;91.10;;;;;;6275955;22;20035;-78
2023/10/19 22:54:41;;;;;;;30.48;6.75;;;23.50;91.00;;;;;;6275735;22;19996;-77
2023/10/19 22:57:08;;;;;;;25.38;6.75;;;23.50;91.00;;;;;;6276146;22;20004;-78
2023/10/19 22:59:34;;;;;;;24.27;6.45;;;23.50;90.90;;;;;;6275628;22;20027;-77
2023/10/19 23:02:00;;;;;;;25.20;6.18;;;23.50;90.80;;;;;;6275718;22;20164;-77
2023/10/19 23:04:25;;;;;;;21.35;6.07;;;23.50;90.70;;;;;;6276019;22;20398;-77
2023/10/19 23:06:51;;;;;;;18.85;6.80;;;23.50;90.60;;;;;;6275558;22;20012;-76
2023/10/19 23:09:26;;;;;;;21.20;6.28;;;23.50;90.60;;;;;;6275953;22;20011;-76
2023/10/19 23:11:59;;;;;;;24.83;6.00;;;23.50;90.40;;;;;;6275265;22;20004;-76
2023/10/19 23:14:28;;;;;;;19.67;6.63;;;23.50;90.40;;;;;;6275498;22;20307;-77
2023/10/19 23:16:58;;;;;;;19.88;6.53;;;23.50;90.30;;;;;;6275172;22;20305;-77
2023/10/19 23:19:25;;;;;;;25.50;6.22;;;23.40;90.20;;;;;;6275094;22;20019;-78
2023/10/19 23:21:51;;;;;;;20.20;6.07;;;23.40;90.10;;;;;;6275585;22;20015;-76
2023/10/19 23:24:27;;;;;;;23.45;6.82;;;23.40;90.10;;;;;;6274894;22;20006;-76
2023/10/19 23:26:53;;;;;;;23.33;6.30;;;23.40;90.00;;;;;;6275036;22;20012;-78
2023/10/19 23:29:19;;;;;;;22.08;5.90;;;23.40;89.80;;;;;;6275365;22;20007;-76
2023/10/19 23:31:45;;;;;;;23.60;6.45;;;23.50;89.60;;;;;;6275180;22;20003;-78
2023/10/19 23:34:12;;;;;;;19.42;6.47;;;23.40;88.80;;;;;;6275025;22;19999;-76
2023/10/19 23:36:38;;;;;;;22.20;5.97;;;23.50;88.50;;;;;;6274780;22;20030;-75
2023/10/19 23:39:07;;;;;;;18.88;5.60;;;23.50;88.00;;;;;;6275103;22;20410;-77
2023/10/19 23:41:33;;;;;;;17.00;5.30;;;23.50;87.80;;;;;;6275065;22;20000;-75
2023/10/19 23:43:58;;;;;;;17.30;5.55;;;23.50;87.70;;;;;;6274664;22;20003;-75
2023/10/19 23:46:24;;;;;;;19.80;5.30;;;23.50;87.10;;;;;;6275240;22;20449;-75
2023/10/19 23:48:50;;;;;;;20.00;5.15;;;23.50;86.80;;;;;;6277072;22;20004;-76
2023/10/19 23:51:16;;;;;;;21.13;5.72;;;23.50;86.20;;;;;;6249879;22;20008;-75
2023/10/19 23:53:41;;;;;;;15.25;5.40;;;23.50;85.70;;;;;;6276854;22;20004;-75
2023/10/19 23:56:09;;;;;;;16.88;5.75;;;23.50;85.60;;;;;;6277195;22;20010;-76
2023/10/19 23:58:34;;;;;;;16.52;5.38;;;23.50;85.30;;;;;;6277470;22;20035;-76
